sensor_id;sensor_type;location;lat;lon;timestamp;P1;durP1;ratioP1;P2;durP2;ratioP2
76039;SDS011;64736;50.462;4.850;2023-07-28T00:01:01;5.35;;;2.47;;
76039;SDS011;64736;50.462;4.850;2023-07-28T00:03:27;5.00;;;2.10;;
76039;SDS011;64736;50.462;4.850;2023-07-28T00:05:52;4.50;;;1.98;;
76039;SDS011;64736;50.462;4.850;2023-07-28T00:08:18;5.43;;;2.20;;
76039;SDS011;64736;50.462;4.850;2023-07-28T00:10:44;4.97;;;2.50;;
76039;SDS011;64736;50.462;4.850;2023-07-28T00:13:10;6.32;;;2.35;;
76039;SDS011;64736;50.462;4.850;2023-07-28T00:15:35;4.88;;;2.10;;
76039;SDS011;64736;50.462;4.850;2023-07-28T00:18:01;6.72;;;2.53;;
76039;SDS011;64736;50.462;4.850;2023-07-28T00:20:27;4.78;;;2.33;;
76039;SDS011;64736;50.462;4.850;2023-07-28T00:22:53;5.75;;;2.30;;
76039;SDS011;64736;50.462;4.850;2023-07-28T00:25:19;5.22;;;2.40;;
76039;SDS011;64736;50.462;4.850;2023-07-28T00:27:45;6.20;;;1.90;;
76039;SDS011;64736;50.462;4.850;2023-07-28T00:30:11;4.93;;;2.22;;
76039;SDS011;64736;50.462;4.850;2023-07-28T00:32:37;4.93;;;2.17;;
76039;SDS011;64736;50.462;4.850;2023-07-28T00:35:03;4.60;;;2.00;;
76039;SDS011;64736;50.462;4.850;2023-07-28T00:37:29;5.10;;;2.30;;
76039;SDS011;64736;50.462;4.850;2023-07-28T00:39:55;5.70;;;2.53;;
76039;SDS011;64736;50.462;4.850;2023-07-28T00:42:21;5.50;;;2.70;;
76039;SDS011;64736;50.462;4.850;2023-07-28T00:44:47;7.15;;;2.47;;
76039;SDS011;64736;50.462;4.850;2023-07-28T00:47:13;5.40;;;2.38;;
76039;SDS011;64736;50.462;4.850;2023-07-28T00:49:39;5.35;;;2.30;;
76039;SDS011;64736;50.462;4.850;2023-07-28T00:52:06;5.63;;;2.33;;
76039;SDS011;64736;50.462;4.850;2023-07-28T00:54:33;6.80;;;2.35;;
76039;SDS011;64736;50.462;4.850;2023-07-28T00:56:59;5.03;;;2.40;;
76039;SDS011;64736;50.462;4.850;2023-07-28T00:59:26;5.85;;;2.33;;
76039;SDS011;64736;50.462;4.850;2023-07-28T01:01:52;5.63;;;2.42;;
76039;SDS011;64736;50.462;4.850;2023-07-28T01:04:18;5.65;;;2.15;;
76039;SDS011;64736;50.462;4.850;2023-07-28T01:07:29;5.82;;;2.83;;
76039;SDS011;64736;50.462;4.850;2023-07-28T01:10:41;4.32;;;2.00;;
76039;SDS011;64736;50.462;4.850;2023-07-28T01:12:44;5.88;;;2.47;;
76039;SDS011;64736;50.462;4.850;2023-07-28T01:15:09;7.47;;;4.03;;
76039;SDS011;64736;50.462;4.850;2023-07-28T01:17:35;5.68;;;2.45;;
76039;SDS011;64736;50.462;4.850;2023-07-28T01:20:01;6.20;;;2.70;;
76039;SDS011;64736;50.462;4.850;2023-07-28T01:25:07;6.50;;;2.65;;
76039;SDS011;64736;50.462;4.850;2023-07-28T01:27:55;6.47;;;2.80;;
76039;SDS011;64736;50.462;4.850;2023-07-28T01:30:22;5.68;;;2.45;;
76039;SDS011;64736;50.462;4.850;2023-07-28T01:32:51;7.38;;;2.72;;
76039;SDS011;64736;50.462;4.850;2023-07-28T01:35:19;5.77;;;2.50;;
76039;SDS011;64736;50.462;4.850;2023-07-28T01:37:45;5.45;;;2.30;;
76039;SDS011;64736;50.462;4.850;2023-07-28T01:40:16;4.93;;;2.30;;
76039;SDS011;64736;50.462;4.850;2023-07-28T01:42:43;6.53;;;2.45;;
76039;SDS011;64736;50.462;4.850;2023-07-28T01:45:09;5.75;;;2.28;;
76039;SDS011;64736;50.462;4.850;2023-07-28T01:47:35;5.85;;;2.30;;
76039;SDS011;64736;50.462;4.850;2023-07-28T01:50:00;5.40;;;2.53;;
76039;SDS011;64736;50.462;4.850;2023-07-28T01:52:26;4.65;;;1.95;;
76039;SDS011;64736;50.462;4.850;2023-07-28T01:54:52;5.93;;;2.20;;
76039;SDS011;64736;50.462;4.850;2023-07-28T01:57:18;6.13;;;2.10;;
76039;SDS011;64736;50.462;4.850;2023-07-28T01:59:43;4.90;;;2.25;;
76039;SDS011;64736;50.462;4.850;2023-07-28T02:02:09;5.32;;;2.00;;
76039;SDS011;64736;50.462;4.850;2023-07-28T02:04:35;5.38;;;2.00;;
76039;SDS011;64736;50.462;4.850;2023-07-28T02:07:01;7.03;;;2.65;;
76039;SDS011;64736;50.462;4.850;2023-07-28T02:09:27;4.75;;;2.00;;
76039;SDS011;64736;50.462;4.850;2023-07-28T02:11:52;4.35;;;1.80;;
76039;SDS011;64736;50.462;4.850;2023-07-28T02:14:18;4.90;;;1.90;;
76039;SDS011;64736;50.462;4.850;2023-07-28T02:16:44;5.32;;;2.28;;
76039;SDS011;64736;50.462;4.850;2023-07-28T02:19:10;5.13;;;2.00;;
76039;SDS011;64736;50.462;4.850;2023-07-28T02:21:36;4.15;;;1.77;;
76039;SDS011;64736;50.462;4.850;2023-07-28T02:24:01;4.95;;;2.35;;
76039;SDS011;64736;50.462;4.850;2023-07-28T02:26:27;5.93;;;2.70;;
76039;SDS011;64736;50.462;4.850;2023-07-28T02:28:53;4.70;;;1.88;;
76039;SDS011;64736;50.462;4.850;2023-07-28T02:31:19;4.90;;;2.05;;
76039;SDS011;64736;50.462;4.850;2023-07-28T02:33:45;4.18;;;1.80;;
76039;SDS011;64736;50.462;4.850;2023-07-28T02:36:11;5.03;;;1.95;;
76039;SDS011;64736;50.462;4.850;2023-07-28T02:38:36;4.88;;;2.10;;
76039;SDS011;64736;50.462;4.850;2023-07-28T02:41:02;5.70;;;2.20;;
76039;SDS011;64736;50.462;4.850;2023-07-28T02:43:29;4.60;;;1.90;;
76039;SDS011;64736;50.462;4.850;2023-07-28T02:45:55;4.95;;;2.00;;
76039;SDS011;64736;50.462;4.850;2023-07-28T02:48:23;5.85;;;1.90;;
76039;SDS011;64736;50.462;4.850;2023-07-28T02:50:50;5.13;;;2.20;;
76039;SDS011;64736;50.462;4.850;2023-07-28T02:53:16;4.78;;;2.17;;
76039;SDS011;64736;50.462;4.850;2023-07-28T02:55:43;4.78;;;1.70;;
76039;SDS011;64736;50.462;4.850;2023-07-28T02:58:09;6.40;;;2.58;;
76039;SDS011;64736;50.462;4.850;2023-07-28T03:00:39;5.85;;;2.30;;
76039;SDS011;64736;50.462;4.850;2023-07-28T03:03:05;5.60;;;2.10;;
76039;SDS011;64736;50.462;4.850;2023-07-28T03:05:32;5.82;;;2.17;;
76039;SDS011;64736;50.462;4.850;2023-07-28T03:07:58;4.85;;;2.15;;
76039;SDS011;64736;50.462;4.850;2023-07-28T03:10:24;5.43;;;1.75;;
76039;SDS011;64736;50.462;4.850;2023-07-28T03:12:50;4.68;;;2.20;;
76039;SDS011;64736;50.462;4.850;2023-07-28T03:15:16;5.63;;;2.00;;
76039;SDS011;64736;50.462;4.850;2023-07-28T03:17:42;4.35;;;1.88;;
76039;SDS011;64736;50.462;4.850;2023-07-28T03:20:08;4.13;;;1.60;;
76039;SDS011;64736;50.462;4.850;2023-07-28T03:22:34;6.32;;;2.15;;
76039;SDS011;64736;50.462;4.850;2023-07-28T03:25:00;5.70;;;2.40;;
76039;SDS011;64736;50.462;4.850;2023-07-28T03:27:26;4.90;;;2.10;;
76039;SDS011;64736;50.462;4.850;2023-07-28T03:29:51;7.38;;;2.63;;
76039;SDS011;64736;50.462;4.850;2023-07-28T03:32:17;5.68;;;1.88;;
76039;SDS011;64736;50.462;4.850;2023-07-28T03:34:43;5.47;;;1.80;;
76039;SDS011;64736;50.462;4.850;2023-07-28T03:37:08;4.22;;;1.90;;
76039;SDS011;64736;50.462;4.850;2023-07-28T03:39:34;4.60;;;2.10;;
76039;SDS011;64736;50.462;4.850;2023-07-28T03:42:00;4.60;;;1.63;;
76039;SDS011;64736;50.462;4.850;2023-07-28T03:44:26;5.22;;;1.58;;
76039;SDS011;64736;50.462;4.850;2023-07-28T03:46:52;4.43;;;1.85;;
76039;SDS011;64736;50.462;4.850;2023-07-28T03:49:17;4.22;;;1.80;;
76039;SDS011;64736;50.462;4.850;2023-07-28T03:51:43;4.25;;;1.55;;
76039;SDS011;64736;50.462;4.850;2023-07-28T03:54:09;4.25;;;1.50;;
76039;SDS011;64736;50.462;4.850;2023-07-28T03:56:35;4.38;;;1.40;;
76039;SDS011;64736;50.462;4.850;2023-07-28T03:59:00;4.28;;;1.55;;
76039;SDS011;64736;50.462;4.850;2023-07-28T04:01:26;3.90;;;1.60;;
76039;SDS011;64736;50.462;4.850;2023-07-28T04:03:52;3.08;;;1.40;;
76039;SDS011;64736;50.462;4.850;2023-07-28T04:06:18;4.32;;;1.50;;
76039;SDS011;64736;50.462;4.850;2023-07-28T04:08:43;4.97;;;1.52;;
76039;SDS011;64736;50.462;4.850;2023-07-28T04:11:10;4.20;;;1.60;;
76039;SDS011;64736;50.462;4.850;2023-07-28T04:13:36;3.95;;;1.70;;
76039;SDS011;64736;50.462;4.850;2023-07-28T04:16:01;3.88;;;1.55;;
76039;SDS011;64736;50.462;4.850;2023-07-28T04:18:27;5.22;;;2.25;;
76039;SDS011;64736;50.462;4.850;2023-07-28T04:20:53;5.15;;;1.88;;
76039;SDS011;64736;50.462;4.850;2023-07-28T04:23:19;3.97;;;1.70;;
76039;SDS011;64736;50.462;4.850;2023-07-28T04:25:45;5.00;;;1.85;;
76039;SDS011;64736;50.462;4.850;2023-07-28T04:28:10;4.15;;;1.55;;
76039;SDS011;64736;50.462;4.850;2023-07-28T04:30:36;4.53;;;1.70;;
76039;SDS011;64736;50.462;4.850;2023-07-28T04:33:02;5.38;;;1.83;;
76039;SDS011;64736;50.462;4.850;2023-07-28T04:35:29;4.05;;;1.38;;
76039;SDS011;64736;50.462;4.850;2023-07-28T04:37:55;4.15;;;1.65;;
76039;SDS011;64736;50.462;4.850;2023-07-28T04:40:21;5.15;;;1.90;;
76039;SDS011;64736;50.462;4.850;2023-07-28T04:42:47;4.60;;;2.08;;
76039;SDS011;64736;50.462;4.850;2023-07-28T04:45:18;4.03;;;1.67;;
76039;SDS011;64736;50.462;4.850;2023-07-28T04:47:44;3.65;;;1.30;;
76039;SDS011;64736;50.462;4.850;2023-07-28T04:50:10;4.45;;;1.40;;
76039;SDS011;64736;50.462;4.850;2023-07-28T04:52:35;4.05;;;1.92;;
76039;SDS011;64736;50.462;4.850;2023-07-28T04:55:01;4.03;;;1.50;;
76039;SDS011;64736;50.462;4.850;2023-07-28T04:57:27;4.47;;;1.50;;
76039;SDS011;64736;50.462;4.850;2023-07-28T04:59:52;4.68;;;1.40;;
76039;SDS011;64736;50.462;4.850;2023-07-28T05:02:18;4.30;;;1.50;;
76039;SDS011;64736;50.462;4.850;2023-07-28T05:04:44;3.78;;;1.63;;
76039;SDS011;64736;50.462;4.850;2023-07-28T05:07:09;4.05;;;1.30;;
76039;SDS011;64736;50.462;4.850;2023-07-28T05:09:35;4.35;;;1.67;;
76039;SDS011;64736;50.462;4.850;2023-07-28T05:12:02;5.03;;;1.63;;
76039;SDS011;64736;50.462;4.850;2023-07-28T05:14:28;4.05;;;1.40;;
76039;SDS011;64736;50.462;4.850;2023-07-28T05:16:54;3.65;;;1.30;;
76039;SDS011;64736;50.462;4.850;2023-07-28T05:19:19;3.47;;;1.13;;
76039;SDS011;64736;50.462;4.850;2023-07-28T05:21:45;3.30;;;1.30;;
76039;SDS011;64736;50.462;4.850;2023-07-28T05:24:11;5.28;;;1.35;;
76039;SDS011;64736;50.462;4.850;2023-07-28T05:26:37;3.42;;;1.30;;
76039;SDS011;64736;50.462;4.850;2023-07-28T05:29:03;3.53;;;1.30;;
76039;SDS011;64736;50.462;4.850;2023-07-28T05:31:28;3.67;;;1.40;;
76039;SDS011;64736;50.462;4.850;2023-07-28T05:33:54;4.10;;;1.58;;
76039;SDS011;64736;50.462;4.850;2023-07-28T05:36:20;3.65;;;1.08;;
76039;SDS011;64736;50.462;4.850;2023-07-28T05:38:46;4.10;;;1.38;;
76039;SDS011;64736;50.462;4.850;2023-07-28T05:41:11;3.63;;;1.20;;
76039;SDS011;64736;50.462;4.850;2023-07-28T05:43:37;4.07;;;1.25;;
76039;SDS011;64736;50.462;4.850;2023-07-28T05:46:03;3.95;;;1.45;;
76039;SDS011;64736;50.462;4.850;2023-07-28T05:48:29;3.90;;;1.20;;
76039;SDS011;64736;50.462;4.850;2023-07-28T05:50:54;3.60;;;1.20;;
76039;SDS011;64736;50.462;4.850;2023-07-28T05:53:20;3.80;;;1.10;;
76039;SDS011;64736;50.462;4.850;2023-07-28T05:55:47;4.30;;;1.33;;
76039;SDS011;64736;50.462;4.850;2023-07-28T05:58:13;4.97;;;1.70;;
76039;SDS011;64736;50.462;4.850;2023-07-28T06:00:40;4.45;;;1.50;;
76039;SDS011;64736;50.462;4.850;2023-07-28T06:03:07;3.67;;;1.13;;
76039;SDS011;64736;50.462;4.850;2023-07-28T06:08:00;3.50;;;1.30;;
76039;SDS011;64736;50.462;4.850;2023-07-28T06:10:26;3.33;;;1.50;;
76039;SDS011;64736;50.462;4.850;2023-07-28T06:12:52;3.92;;;1.08;;
76039;SDS011;64736;50.462;4.850;2023-07-28T06:15:18;4.03;;;1.13;;
76039;SDS011;64736;50.462;4.850;2023-07-28T06:17:43;3.47;;;0.90;;
76039;SDS011;64736;50.462;4.850;2023-07-28T06:20:09;3.45;;;1.10;;
76039;SDS011;64736;50.462;4.850;2023-07-28T06:22:35;3.72;;;0.90;;
76039;SDS011;64736;50.462;4.850;2023-07-28T06:25:01;3.53;;;1.00;;
76039;SDS011;64736;50.462;4.850;2023-07-28T06:27:28;2.72;;;0.90;;
76039;SDS011;64736;50.462;4.850;2023-07-28T06:29:53;2.65;;;1.00;;
76039;SDS011;64736;50.462;4.850;2023-07-28T06:32:19;3.38;;;1.25;;
76039;SDS011;64736;50.462;4.850;2023-07-28T06:34:49;4.38;;;1.00;;
76039;SDS011;64736;50.462;4.850;2023-07-28T06:37:15;2.92;;;0.82;;
76039;SDS011;64736;50.462;4.850;2023-07-28T06:39:41;3.25;;;1.10;;
76039;SDS011;64736;50.462;4.850;2023-07-28T06:42:07;2.28;;;0.90;;
76039;SDS011;64736;50.462;4.850;2023-07-28T06:44:33;2.55;;;1.00;;
76039;SDS011;64736;50.462;4.850;2023-07-28T06:46:58;2.55;;;1.17;;
76039;SDS011;64736;50.462;4.850;2023-07-28T06:49:24;2.17;;;0.80;;
76039;SDS011;64736;50.462;4.850;2023-07-28T06:51:50;2.55;;;1.00;;
76039;SDS011;64736;50.462;4.850;2023-07-28T06:54:16;3.38;;;1.00;;
76039;SDS011;64736;50.462;4.850;2023-07-28T06:56:41;3.42;;;1.40;;
76039;SDS011;64736;50.462;4.850;2023-07-28T06:59:07;3.55;;;1.20;;
76039;SDS011;64736;50.462;4.850;2023-07-28T07:01:33;2.88;;;1.00;;
76039;SDS011;64736;50.462;4.850;2023-07-28T07:03:59;2.63;;;0.93;;
76039;SDS011;64736;50.462;4.850;2023-07-28T07:06:25;2.75;;;1.00;;
76039;SDS011;64736;50.462;4.850;2023-07-28T07:08:51;3.42;;;1.30;;
76039;SDS011;64736;50.462;4.850;2023-07-28T07:11:17;4.50;;;1.55;;
76039;SDS011;64736;50.462;4.850;2023-07-28T07:13:43;3.00;;;1.17;;
76039;SDS011;64736;50.462;4.850;2023-07-28T07:16:18;2.90;;;1.10;;
76039;SDS011;64736;50.462;4.850;2023-07-28T07:18:43;2.65;;;1.00;;
76039;SDS011;64736;50.462;4.850;2023-07-28T07:21:09;1.95;;;0.90;;
76039;SDS011;64736;50.462;4.850;2023-07-28T07:23:35;3.55;;;1.17;;
76039;SDS011;64736;50.462;4.850;2023-07-28T07:26:01;5.57;;;1.20;;
76039;SDS011;64736;50.462;4.850;2023-07-28T07:28:27;2.85;;;1.20;;
76039;SDS011;64736;50.462;4.850;2023-07-28T07:30:53;3.25;;;1.17;;
76039;SDS011;64736;50.462;4.850;2023-07-28T07:33:19;3.35;;;1.10;;
76039;SDS011;64736;50.462;4.850;2023-07-28T07:35:45;3.30;;;1.30;;
76039;SDS011;64736;50.462;4.850;2023-07-28T07:38:11;3.58;;;1.30;;
76039;SDS011;64736;50.462;4.850;2023-07-28T07:40:36;2.55;;;0.98;;
76039;SDS011;64736;50.462;4.850;2023-07-28T07:43:02;3.72;;;1.40;;
76039;SDS011;64736;50.462;4.850;2023-07-28T07:45:31;2.90;;;1.02;;
76039;SDS011;64736;50.462;4.850;2023-07-28T07:47:57;2.78;;;1.15;;
76039;SDS011;64736;50.462;4.850;2023-07-28T07:50:23;3.78;;;1.20;;
76039;SDS011;64736;50.462;4.850;2023-07-28T07:52:49;3.10;;;0.95;;
76039;SDS011;64736;50.462;4.850;2023-07-28T07:55:14;2.50;;;1.02;;
76039;SDS011;64736;50.462;4.850;2023-07-28T07:57:40;2.67;;;1.13;;
76039;SDS011;64736;50.462;4.850;2023-07-28T08:00:06;4.47;;;1.50;;
76039;SDS011;64736;50.462;4.850;2023-07-28T08:02:33;2.97;;;1.10;;
76039;SDS011;64736;50.462;4.850;2023-07-28T08:04:59;3.38;;;1.27;;
76039;SDS011;64736;50.462;4.850;2023-07-28T08:07:25;2.83;;;1.02;;
76039;SDS011;64736;50.462;4.850;2023-07-28T08:09:51;2.92;;;1.00;;
76039;SDS011;64736;50.462;4.850;2023-07-28T08:12:17;3.17;;;1.35;;
76039;SDS011;64736;50.462;4.850;2023-07-28T08:14:44;3.78;;;1.30;;
76039;SDS011;64736;50.462;4.850;2023-07-28T08:17:11;3.97;;;1.40;;
76039;SDS011;64736;50.462;4.850;2023-07-28T08:19:37;3.30;;;1.10;;
76039;SDS011;64736;50.462;4.850;2023-07-28T08:22:02;3.50;;;1.25;;
76039;SDS011;64736;50.462;4.850;2023-07-28T08:24:32;3.50;;;1.30;;
76039;SDS011;64736;50.462;4.850;2023-07-28T08:26:58;4.18;;;1.90;;
76039;SDS011;64736;50.462;4.850;2023-07-28T08:29:23;3.38;;;1.33;;
76039;SDS011;64736;50.462;4.850;2023-07-28T08:31:50;4.50;;;1.52;;
76039;SDS011;64736;50.462;4.850;2023-07-28T08:34:16;3.42;;;1.38;;
76039;SDS011;64736;50.462;4.850;2023-07-28T08:36:42;5.00;;;1.30;;
76039;SDS011;64736;50.462;4.850;2023-07-28T08:39:08;3.38;;;1.23;;
76039;SDS011;64736;50.462;4.850;2023-07-28T08:41:34;3.70;;;1.65;;
76039;SDS011;64736;50.462;4.850;2023-07-28T08:44:00;4.68;;;1.33;;
76039;SDS011;64736;50.462;4.850;2023-07-28T08:46:26;3.75;;;1.70;;
76039;SDS011;64736;50.462;4.850;2023-07-28T08:48:52;4.18;;;1.30;;
76039;SDS011;64736;50.462;4.850;2023-07-28T08:51:18;3.45;;;1.20;;
76039;SDS011;64736;50.462;4.850;2023-07-28T08:53:43;3.75;;;1.35;;
76039;SDS011;64736;50.462;4.850;2023-07-28T08:56:09;3.75;;;1.17;;
76039;SDS011;64736;50.462;4.850;2023-07-28T08:58:34;3.03;;;1.20;;
76039;SDS011;64736;50.462;4.850;2023-07-28T09:01:01;4.22;;;1.60;;
76039;SDS011;64736;50.462;4.850;2023-07-28T09:03:28;4.85;;;1.70;;
76039;SDS011;64736;50.462;4.850;2023-07-28T09:06:00;4.43;;;1.40;;
76039;SDS011;64736;50.462;4.850;2023-07-28T09:08:27;3.70;;;1.30;;
76039;SDS011;64736;50.462;4.850;2023-07-28T09:10:55;4.07;;;1.45;;
76039;SDS011;64736;50.462;4.850;2023-07-28T09:13:22;5.65;;;1.70;;
76039;SDS011;64736;50.462;4.850;2023-07-28T09:15:47;3.70;;;1.35;;
76039;SDS011;64736;50.462;4.850;2023-07-28T09:18:15;6.57;;;1.65;;
76039;SDS011;64736;50.462;4.850;2023-07-28T09:20:41;3.20;;;1.20;;
76039;SDS011;64736;50.462;4.850;2023-07-28T09:23:08;4.30;;;1.90;;
76039;SDS011;64736;50.462;4.850;2023-07-28T09:25:35;3.45;;;1.38;;
76039;SDS011;64736;50.462;4.850;2023-07-28T09:28:02;3.70;;;1.42;;
76039;SDS011;64736;50.462;4.850;2023-07-28T09:30:42;3.60;;;1.38;;
76039;SDS011;64736;50.462;4.850;2023-07-28T09:33:10;2.85;;;1.20;;
76039;SDS011;64736;50.462;4.850;2023-07-28T09:35:36;3.60;;;1.40;;
76039;SDS011;64736;50.462;4.850;2023-07-28T09:38:13;3.72;;;1.38;;
76039;SDS011;64736;50.462;4.850;2023-07-28T09:40:40;2.45;;;0.90;;
76039;SDS011;64736;50.462;4.850;2023-07-28T09:43:07;2.83;;;1.00;;
76039;SDS011;64736;50.462;4.850;2023-07-28T09:45:32;2.95;;;0.82;;
76039;SDS011;64736;50.462;4.850;2023-07-28T09:48:01;3.53;;;0.85;;
76039;SDS011;64736;50.462;4.850;2023-07-28T09:50:28;2.38;;;0.70;;
76039;SDS011;64736;50.462;4.850;2023-07-28T09:52:58;2.55;;;0.90;;
76039;SDS011;64736;50.462;4.850;2023-07-28T09:55:26;3.88;;;0.80;;
76039;SDS011;64736;50.462;4.850;2023-07-28T09:57:54;2.80;;;1.10;;
76039;SDS011;64736;50.462;4.850;2023-07-28T10:00:21;2.25;;;0.70;;
76039;SDS011;64736;50.462;4.850;2023-07-28T10:02:48;2.75;;;0.80;;
76039;SDS011;64736;50.462;4.850;2023-07-28T10:05:14;2.72;;;1.00;;
76039;SDS011;64736;50.462;4.850;2023-07-28T10:07:41;2.38;;;0.70;;
76039;SDS011;64736;50.462;4.850;2023-07-28T10:10:10;2.45;;;0.70;;
76039;SDS011;64736;50.462;4.850;2023-07-28T10:12:40;2.33;;;0.60;;
76039;SDS011;64736;50.462;4.850;2023-07-28T10:15:13;1.88;;;0.77;;
76039;SDS011;64736;50.462;4.850;2023-07-28T10:17:47;1.35;;;0.50;;
76039;SDS011;64736;50.462;4.850;2023-07-28T10:20:37;0.65;;;0.40;;
76039;SDS011;64736;50.462;4.850;2023-07-28T10:23:04;3.58;;;0.50;;
76039;SDS011;64736;50.462;4.850;2023-07-28T10:25:35;1.67;;;0.38;;
76039;SDS011;64736;50.462;4.850;2023-07-28T10:28:02;2.08;;;0.60;;
76039;SDS011;64736;50.462;4.850;2023-07-28T10:30:37;1.73;;;0.50;;
76039;SDS011;64736;50.462;4.850;2023-07-28T10:33:29;1.02;;;0.32;;
76039;SDS011;64736;50.462;4.850;2023-07-28T10:35:57;2.92;;;0.40;;
76039;SDS011;64736;50.462;4.850;2023-07-28T10:38:27;2.08;;;0.50;;
76039;SDS011;64736;50.462;4.850;2023-07-28T10:41:04;1.27;;;0.40;;
76039;SDS011;64736;50.462;4.850;2023-07-28T10:43:32;1.30;;;0.60;;
76039;SDS011;64736;50.462;4.850;2023-07-28T10:45:59;0.80;;;0.30;;
76039;SDS011;64736;50.462;4.850;2023-07-28T10:48:26;1.00;;;0.43;;
76039;SDS011;64736;50.462;4.850;2023-07-28T10:50:52;1.02;;;0.35;;
76039;SDS011;64736;50.462;4.850;2023-07-28T10:53:17;0.57;;;0.30;;
76039;SDS011;64736;50.462;4.850;2023-07-28T10:55:43;0.90;;;0.38;;
76039;SDS011;64736;50.462;4.850;2023-07-28T10:58:09;1.20;;;0.30;;
76039;SDS011;64736;50.462;4.850;2023-07-28T11:00:34;1.33;;;0.30;;
76039;SDS011;64736;50.462;4.850;2023-07-28T11:03:01;0.30;;;0.20;;
76039;SDS011;64736;50.462;4.850;2023-07-28T11:05:27;0.98;;;0.40;;
76039;SDS011;64736;50.462;4.850;2023-07-28T11:07:59;0.20;;;0.20;;
76039;SDS011;64736;50.462;4.850;2023-07-28T11:10:29;0.25;;;0.20;;
76039;SDS011;64736;50.462;4.850;2023-07-28T11:13:00;0.35;;;0.25;;
76039;SDS011;64736;50.462;4.850;2023-07-28T11:15:27;0.70;;;0.30;;
76039;SDS011;64736;50.462;4.850;2023-07-28T11:17:53;0.80;;;0.50;;
76039;SDS011;64736;50.462;4.850;2023-07-28T11:20:20;0.50;;;0.30;;
76039;SDS011;64736;50.462;4.850;2023-07-28T11:22:51;0.30;;;0.30;;
76039;SDS011;64736;50.462;4.850;2023-07-28T11:25:17;1.27;;;0.40;;
76039;SDS011;64736;50.462;4.850;2023-07-28T11:27:44;0.70;;;0.30;;
76039;SDS011;64736;50.462;4.850;2023-07-28T11:30:13;1.08;;;0.50;;
76039;SDS011;64736;50.462;4.850;2023-07-28T11:32:42;0.40;;;0.30;;
76039;SDS011;64736;50.462;4.850;2023-07-28T11:35:10;0.95;;;0.40;;
76039;SDS011;64736;50.462;4.850;2023-07-28T11:37:38;1.08;;;0.50;;
76039;SDS011;64736;50.462;4.850;2023-07-28T11:40:06;0.90;;;0.40;;
76039;SDS011;64736;50.462;4.850;2023-07-28T11:43:06;1.42;;;0.50;;
76039;SDS011;64736;50.462;4.850;2023-07-28T11:45:25;1.60;;;0.80;;
76039;SDS011;64736;50.462;4.850;2023-07-28T11:50:23;1.23;;;0.50;;
76039;SDS011;64736;50.462;4.850;2023-07-28T11:52:50;0.77;;;0.40;;
76039;SDS011;64736;50.462;4.850;2023-07-28T11:55:16;0.73;;;0.30;;
76039;SDS011;64736;50.462;4.850;2023-07-28T11:57:42;0.90;;;0.40;;
76039;SDS011;64736;50.462;4.850;2023-07-28T12:00:08;1.00;;;0.60;;
76039;SDS011;64736;50.462;4.850;2023-07-28T12:02:34;1.30;;;0.43;;
76039;SDS011;64736;50.462;4.850;2023-07-28T12:05:00;0.63;;;0.30;;
76039;SDS011;64736;50.462;4.850;2023-07-28T12:09:56;0.85;;;0.40;;
76039;SDS011;64736;50.462;4.850;2023-07-28T12:12:28;1.38;;;0.52;;
76039;SDS011;64736;50.462;4.850;2023-07-28T12:14:56;1.55;;;0.52;;
76039;SDS011;64736;50.462;4.850;2023-07-28T12:17:29;1.20;;;0.43;;
76039;SDS011;64736;50.462;4.850;2023-07-28T12:19:57;1.48;;;0.52;;
76039;SDS011;64736;50.462;4.850;2023-07-28T12:22:36;1.30;;;0.60;;
76039;SDS011;64736;50.462;4.850;2023-07-28T12:25:03;2.05;;;0.80;;
76039;SDS011;64736;50.462;4.850;2023-07-28T12:27:29;1.35;;;0.60;;
76039;SDS011;64736;50.462;4.850;2023-07-28T12:29:56;3.92;;;0.90;;
76039;SDS011;64736;50.462;4.850;2023-07-28T12:32:22;2.03;;;0.50;;
76039;SDS011;64736;50.462;4.850;2023-07-28T12:34:50;2.45;;;0.80;;
76039;SDS011;64736;50.462;4.850;2023-07-28T12:39:42;2.28;;;0.80;;
76039;SDS011;64736;50.462;4.850;2023-07-28T12:42:09;2.60;;;1.33;;
76039;SDS011;64736;50.462;4.850;2023-07-28T12:44:36;2.22;;;0.80;;
76039;SDS011;64736;50.462;4.850;2023-07-28T12:49:32;3.33;;;0.90;;
76039;SDS011;64736;50.462;4.850;2023-07-28T12:52:00;2.95;;;1.27;;
76039;SDS011;64736;50.462;4.850;2023-07-28T12:54:27;3.03;;;1.08;;
76039;SDS011;64736;50.462;4.850;2023-07-28T12:56:53;2.78;;;1.20;;
76039;SDS011;64736;50.462;4.850;2023-07-28T12:59:19;3.05;;;1.23;;
76039;SDS011;64736;50.462;4.850;2023-07-28T13:01:44;2.30;;;1.10;;
76039;SDS011;64736;50.462;4.850;2023-07-28T13:04:10;2.55;;;0.90;;
76039;SDS011;64736;50.462;4.850;2023-07-28T13:06:36;2.35;;;0.80;;
76039;SDS011;64736;50.462;4.850;2023-07-28T13:09:02;4.35;;;1.20;;
76039;SDS011;64736;50.462;4.850;2023-07-28T13:11:29;3.15;;;1.02;;
76039;SDS011;64736;50.462;4.850;2023-07-28T13:13:55;3.00;;;1.20;;
76039;SDS011;64736;50.462;4.850;2023-07-28T13:16:21;2.88;;;1.00;;
76039;SDS011;64736;50.462;4.850;2023-07-28T13:18:47;3.42;;;1.23;;
76039;SDS011;64736;50.462;4.850;2023-07-28T13:21:12;3.25;;;1.10;;
76039;SDS011;64736;50.462;4.850;2023-07-28T13:23:38;3.20;;;1.10;;
76039;SDS011;64736;50.462;4.850;2023-07-28T13:26:05;3.70;;;1.13;;
76039;SDS011;64736;50.462;4.850;2023-07-28T13:28:31;4.72;;;1.10;;
76039;SDS011;64736;50.462;4.850;2023-07-28T13:31:01;4.55;;;1.00;;
76039;SDS011;64736;50.462;4.850;2023-07-28T13:33:27;4.22;;;1.20;;
76039;SDS011;64736;50.462;4.850;2023-07-28T13:35:53;2.72;;;1.02;;
76039;SDS011;64736;50.462;4.850;2023-07-28T13:38:18;4.75;;;0.93;;
76039;SDS011;64736;50.462;4.850;2023-07-28T13:40:44;4.35;;;1.00;;
76039;SDS011;64736;50.462;4.850;2023-07-28T13:43:10;2.60;;;0.90;;
76039;SDS011;64736;50.462;4.850;2023-07-28T13:45:35;3.13;;;1.10;;
76039;SDS011;64736;50.462;4.850;2023-07-28T13:48:02;3.15;;;0.85;;
76039;SDS011;64736;50.462;4.850;2023-07-28T13:50:27;2.88;;;0.77;;
76039;SDS011;64736;50.462;4.850;2023-07-28T13:52:53;2.92;;;1.10;;
76039;SDS011;64736;50.462;4.850;2023-07-28T13:55:18;3.00;;;1.30;;
76039;SDS011;64736;50.462;4.850;2023-07-28T13:57:44;3.53;;;0.90;;
76039;SDS011;64736;50.462;4.850;2023-07-28T14:00:10;3.10;;;1.02;;
76039;SDS011;64736;50.462;4.850;2023-07-28T14:02:36;2.70;;;1.00;;
76039;SDS011;64736;50.462;4.850;2023-07-28T14:05:02;1.98;;;0.90;;
76039;SDS011;64736;50.462;4.850;2023-07-28T14:07:28;2.92;;;0.85;;
76039;SDS011;64736;50.462;4.850;2023-07-28T14:09:54;2.00;;;0.80;;
76039;SDS011;64736;50.462;4.850;2023-07-28T14:12:19;3.10;;;0.93;;
76039;SDS011;64736;50.462;4.850;2023-07-28T14:14:45;2.70;;;0.80;;
76039;SDS011;64736;50.462;4.850;2023-07-28T14:17:11;2.88;;;0.90;;
76039;SDS011;64736;50.462;4.850;2023-07-28T14:19:40;3.17;;;1.00;;
76039;SDS011;64736;50.462;4.850;2023-07-28T14:22:09;2.28;;;0.77;;
76039;SDS011;64736;50.462;4.850;2023-07-28T14:24:35;2.33;;;1.10;;
76039;SDS011;64736;50.462;4.850;2023-07-28T14:27:01;2.97;;;0.93;;
76039;SDS011;64736;50.462;4.850;2023-07-28T14:29:27;3.85;;;1.92;;
76039;SDS011;64736;50.462;4.850;2023-07-28T14:31:52;3.42;;;1.10;;
76039;SDS011;64736;50.462;4.850;2023-07-28T14:34:18;1.70;;;0.70;;
76039;SDS011;64736;50.462;4.850;2023-07-28T14:36:44;2.67;;;1.00;;
76039;SDS011;64736;50.462;4.850;2023-07-28T14:39:10;2.45;;;1.10;;
76039;SDS011;64736;50.462;4.850;2023-07-28T14:41:36;2.80;;;0.93;;
76039;SDS011;64736;50.462;4.850;2023-07-28T14:44:02;2.70;;;1.08;;
76039;SDS011;64736;50.462;4.850;2023-07-28T14:46:28;2.78;;;1.05;;
76039;SDS011;64736;50.462;4.850;2023-07-28T14:48:54;1.85;;;0.90;;
76039;SDS011;64736;50.462;4.850;2023-07-28T14:51:20;2.45;;;1.15;;
76039;SDS011;64736;50.462;4.850;2023-07-28T14:53:46;2.85;;;1.10;;
76039;SDS011;64736;50.462;4.850;2023-07-28T14:56:13;3.13;;;0.93;;
76039;SDS011;64736;50.462;4.850;2023-07-28T14:58:40;2.60;;;0.98;;
76039;SDS011;64736;50.462;4.850;2023-07-28T15:01:11;2.42;;;1.00;;